Time;durP1;ratioP1;P1;durP2;ratioP2;P2;SDS_P1;SDS_P2;PMS_P1;PMS_P2;Temp;Humidity;BMP_temperature;BMP_pressure;BME280_temperature;BME280_humidity;BME280_pressure;Samples;Min_cycle;Max_cycle;Signal;HPM_P1;HPM_P2
2023/09/26 00:00:39;;;;;;;1.93;1.83;;;;;;;15.09;88.58;96035.03;4375559;32;20177;-62
2023/09/26 00:03:06;;;;;;;0.93;0.93;;;;;;;15.43;88.75;96026.41;4377424;32;20185;-62
2023/09/26 00:05:32;;;;;;;2.13;2.03;;;;;;;15.53;88.22;96033.41;4376820;32;20211;-62
2023/09/26 00:08:01;;;;;;;1.73;1.63;;;;;;;15.57;87.98;96040.53;4370706;32;20181;-62
2023/09/26 00:10:26;;;;;;;0.87;0.87;;;;;;;15.44;87.46;96036.03;4369639;32;20253;-62
2023/09/26 00:12:52;;;;;;;1.20;1.20;;;;;;;15.56;86.88;96036.28;4379274;32;20188;-61
2023/09/26 00:15:17;;;;;;;2.13;2.03;;;;;;;15.36;87.67;96040.25;4377913;32;20180;-61
2023/09/26 00:17:43;;;;;;;1.80;1.70;;;;;;;15.42;87.31;96038.22;4378911;32;20181;-61
2023/09/26 00:20:10;;;;;;;1.70;1.70;;;;;;;15.45;87.09;96037.59;4378751;32;20177;-61
2023/09/26 00:22:36;;;;;;;1.37;1.37;;;;;;;15.11;87.27;96027.50;4378452;32;20185;-61
2023/09/26 00:25:02;;;;;;;1.70;1.60;;;;;;;15.23;88.40;96030.37;4380193;32;20177;-62
2023/09/26 00:27:27;;;;;;;0.67;0.67;;;;;;;15.31;87.46;96026.19;4364865;32;20200;-62
2023/09/26 00:29:53;;;;;;;1.37;1.37;;;;;;;14.84;87.60;96025.72;4379051;32;20197;-62
2023/09/26 00:32:18;;;;;;;1.63;1.60;;;;;;;14.89;89.77;96024.81;4378734;32;20180;-62
2023/09/26 00:34:43;;;;;;;1.93;1.83;;;;;;;15.28;88.96;96024.13;4377416;32;20246;-62
2023/09/26 00:37:09;;;;;;;2.40;1.33;;;;;;;15.37;87.52;96025.00;4377758;32;20191;-62
2023/09/26 00:39:35;;;;;;;1.80;1.70;;;;;;;15.46;87.26;96023.94;4380889;32;20177;-62
2023/09/26 00:42:00;;;;;;;1.30;1.20;;;;;;;15.52;87.00;96027.25;4378304;32;20231;-62
2023/09/26 00:44:26;;;;;;;1.00;1.00;;;;;;;15.44;86.16;96028.00;4378802;32;20180;-62
2023/09/26 00:46:51;;;;;;;1.63;1.60;;;;;;;15.37;86.50;96030.34;4364912;32;20231;-62
2023/09/26 00:49:17;;;;;;;1.57;1.47;;;;;;;15.40;86.57;96029.69;4378690;32;20300;-62
2023/09/26 00:51:42;;;;;;;1.43;1.33;;;;;;;15.16;86.27;96023.91;4378012;32;20188;-62
2023/09/26 00:54:10;;;;;;;1.77;1.67;;;;;;;14.98;87.53;96031.78;4364335;32;20222;-63
2023/09/26 00:56:38;;;;;;;1.57;1.47;;;;;;;15.10;88.25;96021.34;4377727;32;20197;-62
2023/09/26 00:59:03;;;;;;;1.73;1.63;;;;;;;15.15;87.50;96027.69;4366518;32;20290;-63
2023/09/26 01:01:31;;;;;;;2.20;2.10;;;;;;;15.28;87.93;96026.81;4354899;32;20173;-62
2023/09/26 01:03:57;;;;;;;2.50;1.97;;;;;;;14.97;87.43;96024.88;4378185;32;20172;-62
2023/09/26 01:06:23;;;;;;;0.93;0.93;;;;;;;15.08;87.62;96018.19;4378392;32;20193;-62
2023/09/26 01:08:48;;;;;;;0.93;0.93;;;;;;;15.12;87.82;96019.16;4378152;32;20200;-62
2023/09/26 01:11:15;;;;;;;1.13;0.83;;;;;;;15.11;87.28;96020.25;4377481;32;20176;-62
2023/09/26 01:13:40;;;;;;;1.80;1.70;;;;;;;15.03;87.09;96026.31;4376843;32;20184;-62
2023/09/26 01:16:15;;;;;;;0.80;0.80;;;;;;;15.03;87.10;96012.97;4377676;32;20204;-62
2023/09/26 01:18:41;;;;;;;0.97;0.97;;;;;;;15.03;85.84;96023.66;4364373;32;20181;-62
2023/09/26 01:21:07;;;;;;;1.37;1.37;;;;;;;15.08;87.79;96018.19;4363815;32;20185;-63
2023/09/26 01:23:36;;;;;;;6.33;2.10;;;;;;;14.93;87.50;96021.25;4379234;32;20180;-62
2023/09/26 01:26:01;;;;;;;1.07;1.07;;;;;;;14.95;87.35;96018.25;4378165;32;20184;-63
2023/09/26 01:28:26;;;;;;;0.70;0.67;;;;;;;15.01;86.65;96012.47;4377700;32;20239;-62
2023/09/26 01:30:53;;;;;;;1.17;1.13;;;;;;;14.87;86.96;96006.41;4353775;32;20203;-62
2023/09/26 01:33:21;;;;;;;0.83;0.83;;;;;;;14.87;87.28;96019.78;4376270;32;20178;-62
2023/09/26 01:35:46;;;;;;;1.93;1.83;;;;;;;14.99;86.49;96006.66;4376237;32;20189;-61
2023/09/26 01:38:12;;;;;;;3.00;1.13;;;;;;;14.76;87.41;96015.75;4364405;32;20188;-63
2023/09/26 01:40:37;;;;;;;1.20;1.20;;;;;;;14.55;87.53;96004.72;4375302;32;20199;-63
2023/09/26 01:43:03;;;;;;;1.57;1.47;;;;;;;14.47;88.54;95999.31;4365372;32;20260;-62
2023/09/26 01:45:28;;;;;;;1.27;1.27;;;;;;;14.90;88.47;96008.47;4377621;32;20184;-63
2023/09/26 01:47:54;;;;;;;1.07;1.07;;;;;;;15.00;87.55;95997.53;4377775;32;20323;-63
2023/09/26 01:50:21;;;;;;;1.03;1.03;;;;;;;14.77;85.59;95999.41;4378232;32;20264;-62
2023/09/26 01:52:46;;;;;;;0.70;0.70;;;;;;;14.71;86.88;96002.53;4377420;32;20185;-62
2023/09/26 01:55:20;;;;;;;1.20;1.20;;;;;;;14.50;86.44;96010.19;4363450;32;20262;-62
2023/09/26 01:57:46;;;;;;;0.80;0.80;;;;;;;14.77;86.67;96001.28;4376327;32;20176;-63
2023/09/26 02:00:13;;;;;;;1.03;1.03;;;;;;;14.71;86.59;95997.97;4377367;32;20216;-62
2023/09/26 02:02:42;;;;;;;1.90;1.80;;;;;;;14.87;86.65;96000.28;4375893;32;20181;-63
2023/09/26 02:05:09;;;;;;;0.50;0.50;;;;;;;14.47;86.43;96005.47;4352776;32;20246;-63
2023/09/26 02:07:35;;;;;;;3.67;1.27;;;;;;;14.32;86.52;96000.44;4379659;32;20189;-63
2023/09/26 02:10:01;;;;;;;1.13;1.03;;;;;;;14.56;87.98;96000.97;4364274;32;20196;-62
2023/09/26 02:12:26;;;;;;;1.27;1.27;;;;;;;14.71;87.27;96002.53;4376236;32;20199;-63
2023/09/26 02:14:51;;;;;;;0.80;0.80;;;;;;;14.56;87.36;95998.28;4353515;32;20221;-62
2023/09/26 02:17:17;;;;;;;1.07;0.60;;;;;;;14.70;87.16;95995.59;4373944;32;20210;-63
2023/09/26 02:19:42;;;;;;;1.13;1.13;;;;;;;14.85;87.48;96003.25;4377276;32;20196;-63
2023/09/26 02:22:08;;;;;;;1.10;1.10;;;;;;;14.72;86.47;96002.22;4375483;32;20173;-63
2023/09/26 02:24:33;;;;;;;0.70;0.70;;;;;;;14.69;86.98;95996.69;4379045;32;20180;-63
2023/09/26 02:26:58;;;;;;;1.43;1.23;;;;;;;14.65;87.03;96004.50;4363169;32;20212;-63
2023/09/26 02:29:26;;;;;;;1.73;1.63;;;;;;;14.65;86.91;96001.84;4376841;32;20177;-62
2023/09/26 02:31:52;;;;;;;0.87;0.87;;;;;;;14.69;86.32;96005.50;4377235;32;20224;-62
2023/09/26 02:34:17;;;;;;;0.77;0.77;;;;;;;14.66;87.51;96007.97;4376298;32;20196;-62
2023/09/26 02:36:42;;;;;;;0.97;0.97;;;;;;;14.64;86.19;96004.81;4375939;32;20215;-62
2023/09/26 02:39:08;;;;;;;0.63;0.63;;;;;;;14.72;86.60;96006.78;4375928;32;20185;-62
2023/09/26 02:41:33;;;;;;;0.93;0.67;;;;;;;14.64;85.86;96005.59;4378680;32;20184;-62
2023/09/26 02:43:59;;;;;;;1.33;1.23;;;;;;;14.59;85.49;96003.03;4364775;32;20181;-63
2023/09/26 02:46:24;;;;;;;0.63;0.63;;;;;;;14.69;86.18;96010.03;4376616;32;20199;-62
2023/09/26 02:48:49;;;;;;;0.80;0.80;;;;;;;14.51;87.54;96009.13;4376551;32;20173;-62
2023/09/26 02:51:15;;;;;;;0.43;0.43;;;;;;;14.58;88.40;96008.69;4376354;32;20293;-62
2023/09/26 02:53:40;;;;;;;0.97;0.97;;;;;;;14.68;87.59;96008.47;4376447;32;20256;-63
2023/09/26 02:56:09;;;;;;;1.67;1.57;;;;;;;14.64;86.78;96000.25;4376495;32;20189;-62
2023/09/26 02:58:35;;;;;;;0.90;0.90;;;;;;;14.69;86.24;96002.81;4377696;32;20187;-61
2023/09/26 03:01:00;;;;;;;1.00;1.00;;;;;;;14.62;86.65;95999.78;4376168;32;20264;-63
2023/09/26 03:03:26;;;;;;;1.60;1.50;;;;;;;14.59;86.74;95995.03;4374870;32;20278;-62
2023/09/26 03:05:53;;;;;;;1.50;1.43;;;;;;;14.70;87.29;95999.06;4376611;32;20235;-62
2023/09/26 03:08:18;;;;;;;0.80;0.80;;;;;;;14.57;87.37;95993.75;4376374;32;20202;-63
2023/09/26 03:10:44;;;;;;;0.60;0.60;;;;;;;14.56;88.10;95989.50;4375689;32;20211;-63
2023/09/26 03:13:09;;;;;;;1.03;1.03;;;;;;;14.63;87.33;95984.53;4376266;32;20172;-63
2023/09/26 03:15:34;;;;;;;2.80;1.37;;;;;;;14.65;87.51;95985.03;4378476;32;20189;-63
2023/09/26 03:18:00;;;;;;;1.60;0.93;;;;;;;14.77;87.71;95982.59;4375025;32;20203;-63
2023/09/26 03:20:26;;;;;;;1.63;1.63;;;;;;;14.72;87.74;95985.41;4362173;32;20256;-63
2023/09/26 03:22:51;;;;;;;1.40;1.30;;;;;;;14.73;87.29;95981.66;4376203;32;20240;-63
2023/09/26 03:25:16;;;;;;;2.20;1.40;;;;;;;14.65;87.13;95975.13;4362474;32;20199;-63
2023/09/26 03:27:45;;;;;;;1.50;1.40;;;;;;;14.61;86.14;95976.03;4356794;32;20201;-63
2023/09/26 03:30:10;;;;;;;1.63;1.53;;;;;;;14.61;87.50;95968.81;4370434;32;20180;-63
2023/09/26 03:32:36;;;;;;;1.10;1.00;;;;;;;14.61;86.52;95976.81;4376157;32;20199;-63
2023/09/26 03:35:01;;;;;;;0.77;0.77;;;;;;;14.65;86.92;95961.00;4378200;32;20203;-63
2023/09/26 03:37:26;;;;;;;1.20;1.20;;;;;;;14.72;87.38;95966.72;4376014;32;20176;-63
2023/09/26 03:39:52;;;;;;;24.70;2.27;;;;;;;14.21;86.91;95965.16;4351665;32;20230;-63
2023/09/26 03:42:17;;;;;;;7.80;1.10;;;;;;;14.12;88.79;95966.97;4369108;32;20235;-63
2023/09/26 03:44:43;;;;;;;0.60;0.60;;;;;;;14.29;87.61;95971.66;4372971;32;20186;-63
2023/09/26 03:47:08;;;;;;;1.53;1.53;;;;;;;14.60;87.70;95974.44;4364377;32;20188;-63
2023/09/26 03:49:34;;;;;;;2.17;1.27;;;;;;;14.35;86.66;95976.56;4381392;32;20252;-63
2023/09/26 03:51:59;;;;;;;0.50;0.50;;;;;;;14.48;87.40;95972.34;4362970;32;20199;-63
2023/09/26 03:54:24;;;;;;;1.77;1.67;;;;;;;14.67;87.11;95972.94;4377398;32;20207;-61
2023/09/26 03:56:50;;;;;;;2.60;1.67;;;;;;;14.56;86.98;95976.94;4378914;32;20203;-62
2023/09/26 03:59:16;;;;;;;1.23;0.83;;;;;;;14.50;87.85;95974.69;4379362;32;20206;-62
2023/09/26 04:01:42;;;;;;;6.90;1.70;;;;;;;14.43;86.75;95975.91;4365430;32;20196;-62
2023/09/26 04:04:08;;;;;;;1.10;1.10;;;;;;;14.43;87.45;95972.44;4377701;32;20194;-62
2023/09/26 04:06:34;;;;;;;1.20;1.20;;;;;;;14.26;85.09;95975.72;4380737;32;20181;-63
2023/09/26 04:09:00;;;;;;;1.87;1.77;;;;;;;14.39;87.04;95980.22;4378969;32;20203;-62
2023/09/26 04:11:25;;;;;;;1.27;1.23;;;;;;;14.47;86.38;95977.97;4378571;32;20188;-62
2023/09/26 04:13:51;;;;;;;1.37;1.37;;;;;;;14.29;86.44;95972.44;4379233;32;20212;-62
2023/09/26 04:16:16;;;;;;;1.70;1.33;;;;;;;13.86;86.86;95968.56;4379300;32;20189;-62
2023/09/26 04:18:45;;;;;;;1.10;1.03;;;;;;;13.97;86.73;95973.38;4378676;32;20246;-63
2023/09/26 04:21:10;;;;;;;0.60;0.60;;;;;;;13.96;87.61;95966.47;4370340;32;20238;-62
2023/09/26 04:23:35;;;;;;;1.13;1.13;;;;;;;13.84;87.26;95968.06;4378161;32;20197;-62
2023/09/26 04:26:14;;;;;;;0.93;0.93;;;;;;;14.03;87.33;95969.53;4371839;32;20185;-63
2023/09/26 04:28:41;;;;;;;1.37;1.27;;;;;;;14.05;86.90;95971.91;4373743;32;20188;-63
2023/09/26 04:31:19;;;;;;;0.83;0.83;;;;;;;14.15;86.92;95969.00;4380521;32;20195;-62
2023/09/26 04:33:47;;;;;;;0.67;0.67;;;;;;;14.27;86.00;95971.97;4364238;32;20189;-62
2023/09/26 04:36:12;;;;;;;0.73;0.73;;;;;;;14.15;87.20;95973.56;4378475;32;20216;-62
2023/09/26 04:38:38;;;;;;;0.87;0.87;;;;;;;14.23;87.24;95968.31;4366827;32;20199;-63
2023/09/26 04:41:04;;;;;;;2.20;2.00;;;;;;;14.41;86.43;95967.41;4378115;32;20177;-62
2023/09/26 04:43:33;;;;;;;1.30;1.20;;;;;;;14.36;86.77;95967.47;4363872;32;20219;-62
2023/09/26 04:45:59;;;;;;;1.30;1.30;;;;;;;14.30;86.89;95971.38;4377436;32;20303;-62
2023/09/26 04:48:25;;;;;;;1.70;1.60;;;;;;;14.32;87.17;95963.84;4364536;32;20210;-62
2023/09/26 04:50:50;;;;;;;0.83;0.83;;;;;;;14.01;87.45;95961.03;4378486;32;20184;-62
2023/09/26 04:53:16;;;;;;;0.87;0.87;;;;;;;14.23;87.46;95964.84;4377301;32;20185;-62
2023/09/26 04:55:42;;;;;;;1.80;1.00;;;;;;;14.06;87.44;95968.16;4378315;32;20231;-62
2023/09/26 04:58:08;;;;;;;1.80;1.70;;;;;;;14.22;87.76;95971.28;4367200;32;20184;-62
2023/09/26 05:00:34;;;;;;;1.20;1.20;;;;;;;14.05;86.87;95972.69;4380209;32;20198;-63
2023/09/26 05:03:02;;;;;;;1.47;1.37;;;;;;;14.34;87.33;95972.31;4378037;32;20201;-62
2023/09/26 05:05:28;;;;;;;0.97;0.93;;;;;;;14.37;86.74;95977.06;4371862;32;20185;-62
2023/09/26 05:07:54;;;;;;;2.67;1.37;;;;;;;14.37;86.67;95977.06;4364630;32;20184;-62
2023/09/26 05:10:20;;;;;;;20.47;1.43;;;;;;;14.41;86.14;95982.63;4376330;32;20185;-62
2023/09/26 05:12:45;;;;;;;1.70;1.57;;;;;;;14.28;86.54;95978.88;4376284;32;20210;-62
2023/09/26 05:15:12;;;;;;;1.27;1.27;;;;;;;14.15;86.94;95979.69;4376342;32;20177;-63
2023/09/26 05:17:49;;;;;;;1.40;1.40;;;;;;;14.16;86.46;95983.94;4374403;32;20196;-62
2023/09/26 05:20:15;;;;;;;1.13;1.13;;;;;;;13.87;86.56;95986.16;4377374;32;20253;-63
2023/09/26 05:22:43;;;;;;;2.00;1.47;;;;;;;14.07;87.18;95977.72;4382610;32;20177;-62
2023/09/26 05:25:09;;;;;;;2.07;1.97;;;;;;;14.04;87.35;95981.00;4376516;32;20173;-63
2023/09/26 05:27:36;;;;;;;2.37;1.77;;;;;;;14.13;87.23;95979.22;4363721;32;20177;-62
2023/09/26 05:30:02;;;;;;;0.90;0.90;;;;;;;14.24;86.90;95977.09;4376007;32;20177;-63
2023/09/26 05:32:27;;;;;;;1.20;1.20;;;;;;;14.21;87.21;95977.69;4362601;32;20225;-62
2023/09/26 05:34:52;;;;;;;0.93;0.93;;;;;;;14.04;86.46;95979.13;4375280;32;20177;-62
2023/09/26 05:37:18;;;;;;;1.23;1.23;;;;;;;14.35;87.38;95983.78;4367276;32;20199;-62
2023/09/26 05:39:43;;;;;;;1.77;1.70;;;;;;;14.45;86.65;95967.59;4377804;32;20184;-62
2023/09/26 05:42:10;;;;;;;3.43;2.13;;;;;;;14.39;86.08;95972.22;4376446;32;20250;-61
2023/09/26 05:44:35;;;;;;;13.53;2.47;;;;;;;14.48;87.12;95977.66;4383701;32;20206;-62
2023/09/26 05:47:01;;;;;;;1.60;1.60;;;;;;;14.38;86.30;95967.19;4375959;32;20180;-62
2023/09/26 05:49:26;;;;;;;1.00;1.00;;;;;;;14.49;86.61;95973.12;4378034;32;20294;-62
2023/09/26 05:51:51;;;;;;;2.60;2.00;;;;;;;14.53;86.85;95969.56;4380130;32;20294;-62
2023/09/26 05:54:17;;;;;;;3.93;1.90;;;;;;;14.51;86.84;95968.28;4364379;32;20208;-61
2023/09/26 05:56:44;;;;;;;2.13;1.97;;;;;;;14.61;86.56;95981.38;4383431;32;20242;-62
2023/09/26 05:59:09;;;;;;;1.60;1.50;;;;;;;14.56;87.04;95973.47;4364229;32;20184;-62
2023/09/26 06:01:35;;;;;;;1.93;1.83;;;;;;;14.51;86.30;95977.06;4366390;32;20180;-61
2023/09/26 06:04:00;;;;;;;2.23;2.13;;;;;;;14.58;88.52;95979.31;4363009;32;20199;-61
2023/09/26 06:06:25;;;;;;;3.27;1.20;;;;;;;14.13;85.43;95981.09;4367601;32;20184;-62
2023/09/26 06:08:50;;;;;;;1.27;1.27;;;;;;;13.95;85.85;95982.75;4377751;32;20184;-62
2023/09/26 06:11:16;;;;;;;2.20;2.00;;;;;;;13.75;86.89;95986.63;4363177;32;20195;-61
2023/09/26 06:13:44;;;;;;;1.20;1.10;;;;;;;13.62;87.53;95982.88;4375044;32;20188;-62
2023/09/26 06:16:09;;;;;;;1.93;1.77;;;;;;;13.52;88.50;95987.59;4362726;32;20181;-62
2023/09/26 06:18:35;;;;;;;0.47;0.47;;;;;;;13.57;88.30;95980.31;4370119;32;20223;-62
2023/09/26 06:21:05;;;;;;;0.73;0.73;;;;;;;13.65;88.45;95979.63;4373327;32;20224;-61
2023/09/26 06:23:33;;;;;;;0.77;0.77;;;;;;;13.55;88.49;95985.16;4377547;32;20164;-62
2023/09/26 06:25:59;;;;;;;1.50;1.40;;;;;;;13.52;88.92;95982.28;4369971;32;20305;-62
2023/09/26 06:28:25;;;;;;;1.63;1.53;;;;;;;13.40;89.47;95983.56;4380396;32;20189;-62
2023/09/26 06:30:51;;;;;;;1.30;1.20;;;;;;;13.28;90.25;95988.59;4364493;32;20202;-63
2023/09/26 06:33:16;;;;;;;1.47;1.47;;;;;;;13.30;90.15;95978.41;4367011;32;20177;-63
2023/09/26 06:35:42;;;;;;;1.30;1.20;;;;;;;13.43;89.62;95979.53;4379024;32;20181;-63
2023/09/26 06:38:07;;;;;;;1.70;1.60;;;;;;;13.34;90.15;95981.28;4381524;32;20196;-63
2023/09/26 06:40:32;;;;;;;1.67;1.20;;;;;;;13.20;90.91;95985.78;4379884;32;20251;-63
2023/09/26 06:43:00;;;;;;;2.33;1.87;;;;;;;13.22;90.68;95979.09;4367320;32;20184;-63
2023/09/26 06:45:27;;;;;;;0.87;0.87;;;;;;;13.13;91.36;95982.69;4373151;32;20191;-63
2023/09/26 06:47:53;;;;;;;2.27;2.17;;;;;;;13.40;90.67;95980.09;4384599;32;20258;-63
2023/09/26 06:50:18;;;;;;;2.80;1.47;;;;;;;13.54;89.91;95980.91;4365096;32;20252;-63
2023/09/26 06:52:44;;;;;;;1.60;1.50;;;;;;;13.58;89.79;95987.22;4364729;32;20200;-63
2023/09/26 06:55:10;;;;;;;1.53;1.43;;;;;;;13.62;89.54;95988.22;4376058;32;20267;-63
2023/09/26 06:57:36;;;;;;;1.37;1.37;;;;;;;13.55;90.16;95985.16;4378106;32;20238;-63
2023/09/26 07:00:12;;;;;;;1.50;1.50;;;;;;;13.61;90.35;95991.97;4362719;32;20189;-63
2023/09/26 07:02:37;;;;;;;1.70;1.60;;;;;;;13.62;90.28;95988.22;4376454;32;20207;-63
2023/09/26 07:05:03;;;;;;;2.30;2.20;;;;;;;13.61;90.54;95985.84;4376968;32;20181;-63
2023/09/26 07:07:31;;;;;;;1.20;1.20;;;;;;;13.64;90.96;95987.94;4375367;32;20229;-63
2023/09/26 07:10:01;;;;;;;3.93;2.20;;;;;;;13.55;91.39;95984.34;4376547;32;20173;-63
2023/09/26 07:12:26;;;;;;;3.57;2.00;;;;;;;13.67;91.26;95984.69;4376380;32;20180;-62
2023/09/26 07:14:52;;;;;;;2.07;1.97;;;;;;;13.78;90.54;95980.72;4376117;32;20226;-63
2023/09/26 07:17:18;;;;;;;1.73;1.40;;;;;;;13.93;90.21;95980.41;4362651;32;20169;-63
2023/09/26 07:19:44;;;;;;;1.93;1.83;;;;;;;14.00;90.48;95978.13;4376117;32;20232;-63
2023/09/26 07:22:09;;;;;;;2.57;2.47;;;;;;;13.97;91.07;95983.25;4362110;32;20185;-63
2023/09/26 07:24:36;;;;;;;1.70;1.63;;;;;;;14.12;91.04;95980.31;4373891;32;20184;-63
2023/09/26 07:27:01;;;;;;;1.30;1.30;;;;;;;14.13;91.58;95989.09;4372755;32;20185;-63
2023/09/26 07:29:27;;;;;;;4.63;1.87;;;;;;;14.20;91.62;95992.91;4375606;32;20336;-62
2023/09/26 07:31:52;;;;;;;1.80;1.70;;;;;;;14.22;92.00;95990.75;4375348;32;20290;-63
2023/09/26 07:34:18;;;;;;;2.47;2.23;;;;;;;14.30;91.89;95984.72;4374987;32;20199;-63
2023/09/26 07:36:43;;;;;;;2.57;2.23;;;;;;;14.43;91.64;95986.56;4361696;32;20274;-62
2023/09/26 07:39:09;;;;;;;2.27;2.07;;;;;;;14.29;92.34;95991.13;4359188;32;20200;-63
2023/09/26 07:41:34;;;;;;;2.80;2.70;;;;;;;14.26;92.10;95991.72;4349079;32;20185;-63
2023/09/26 07:43:59;;;;;;;2.37;2.27;;;;;;;14.33;92.02;95984.13;4372655;32;20188;-63
2023/09/26 07:46:25;;;;;;;2.40;2.20;;;;;;;14.49;91.59;95994.47;4376019;32;20177;-63
2023/09/26 07:48:50;;;;;;;1.63;1.63;;;;;;;14.55;91.33;95994.03;4376074;32;20177;-63
2023/09/26 07:51:19;;;;;;;2.47;2.27;;;;;;;14.60;91.35;95990.47;4351530;32;20260;-63
2023/09/26 07:53:44;;;;;;;2.00;1.90;;;;;;;14.54;91.29;95995.16;4375451;32;20260;-63
2023/09/26 07:56:10;;;;;;;2.03;1.57;;;;;;;14.60;90.91;95993.16;4365057;32;20196;-63
2023/09/26 07:58:36;;;;;;;2.43;2.23;;;;;;;14.71;90.42;95995.31;4363612;32;20193;-62
2023/09/26 08:01:06;;;;;;;1.43;1.43;;;;;;;14.72;90.29;95993.41;4376152;32;20180;-63
2023/09/26 08:03:32;;;;;;;1.50;1.50;;;;;;;14.84;90.18;96000.88;4374401;32;20207;-63
2023/09/26 08:05:58;;;;;;;2.27;2.17;;;;;;;14.84;90.18;96001.66;4374694;32;20420;-63
2023/09/26 08:08:24;;;;;;;3.70;2.17;;;;;;;14.87;90.18;96001.06;4374750;32;20223;-63
2023/09/26 08:10:49;;;;;;;2.40;2.30;;;;;;;15.02;89.84;96003.38;4376011;32;20264;-62
2023/09/26 08:13:15;;;;;;;1.87;1.77;;;;;;;15.02;89.71;96003.38;4375760;32;20223;-62
2023/09/26 08:15:40;;;;;;;2.40;2.30;;;;;;;15.01;89.58;96001.00;4362090;32;20252;-61
2023/09/26 08:18:05;;;;;;;1.40;1.40;;;;;;;15.08;89.42;96007.50;4378018;32;20199;-62
2023/09/26 08:20:31;;;;;;;2.87;2.57;;;;;;;15.16;89.39;96003.31;4373652;32;20196;-62
2023/09/26 08:22:57;;;;;;;1.67;1.67;;;;;;;15.18;88.71;96005.66;4375503;32;20184;-63
2023/09/26 08:25:22;;;;;;;2.43;2.33;;;;;;;15.25;88.66;96000.69;4375653;32;20186;-62
2023/09/26 08:27:48;;;;;;;3.27;3.07;;;;;;;15.35;88.76;96011.94;4374856;32;20176;-62
2023/09/26 08:30:13;;;;;;;2.50;2.30;;;;;;;15.45;88.18;96005.50;4375501;32;20195;-62
2023/09/26 08:32:42;;;;;;;3.20;3.00;;;;;;;15.45;88.00;96006.31;4377132;32;20184;-63
2023/09/26 08:35:08;;;;;;;2.17;2.07;;;;;;;15.46;88.17;96004.41;4380548;32;20230;-62
2023/09/26 08:37:34;;;;;;;3.57;3.37;;;;;;;15.49;88.80;96011.84;4378861;32;20195;-63
2023/09/26 08:40:00;;;;;;;3.80;2.63;;;;;;;15.53;88.46;96010.13;4377392;32;20172;-62
2023/09/26 08:42:27;;;;;;;8.63;3.10;;;;;;;15.57;87.99;96007.66;4376995;32;20200;-63
2023/09/26 08:44:54;;;;;;;2.97;2.77;;;;;;;15.59;88.21;95998.22;4364694;32;20217;-62
2023/09/26 08:47:27;;;;;;;3.73;3.43;;;;;;;15.69;87.73;95992.59;4378662;32;20200;-62
2023/09/26 08:49:54;;;;;;;2.90;2.77;;;;;;;15.71;87.80;95998.44;4377138;32;20208;-62
2023/09/26 08:52:21;;;;;;;3.87;3.63;;;;;;;15.74;87.41;96000.50;4377937;32;20191;-62
2023/09/26 08:54:46;;;;;;;4.53;3.67;;;;;;;15.82;87.44;95998.94;4378039;32;20177;-63
2023/09/26 08:57:12;;;;;;;8.60;2.73;;;;;;;15.85;87.36;95998.31;4378812;32;20196;-63
2023/09/26 08:59:39;;;;;;;2.70;2.60;;;;;;;15.95;87.22;95998.06;4380013;32;20187;-62
2023/09/26 09:02:05;;;;;;;3.03;2.83;;;;;;;15.92;87.17;95993.31;4377925;32;20176;-62
2023/09/26 09:04:30;;;;;;;5.00;3.17;;;;;;;15.96;86.98;96001.50;4378114;32;20173;-62
2023/09/26 09:07:04;;;;;;;3.43;3.23;;;;;;;16.11;86.46;96001.06;4378065;32;20181;-62
2023/09/26 09:09:30;;;;;;;2.50;2.40;;;;;;;16.10;86.19;96002.19;4379841;32;20192;-62
2023/09/26 09:11:56;;;;;;;4.00;3.77;;;;;;;16.26;85.30;96003.31;4377097;32;20207;-63
2023/09/26 09:14:34;;;;;;;4.17;3.87;;;;;;;16.36;85.05;95986.97;4369591;32;20177;-62
2023/09/26 09:17:00;;;;;;;2.57;2.37;;;;;;;16.35;85.33;95980.03;4375777;32;20184;-62
2023/09/26 09:19:52;;;;;;;3.60;3.40;;;;;;;16.34;85.71;95989.16;4378384;32;20192;-63
2023/09/26 09:22:20;;;;;;;2.07;1.87;;;;;;;16.34;86.29;95989.16;4363432;32;20235;-62
2023/09/26 09:24:54;;;;;;;4.23;3.93;;;;;;;16.38;85.44;95986.66;4363206;32;20250;-62
2023/09/26 09:27:29;;;;;;;2.50;2.40;;;;;;;16.37;85.51;95985.84;4377156;32;20199;-61
2023/09/26 09:30:21;;;;;;;4.03;3.77;;;;;;;16.40;86.38;95977.19;4376754;32;20180;-61
2023/09/26 09:32:47;;;;;;;3.63;3.43;;;;;;;16.56;85.07;95984.75;4375965;32;20218;-61
2023/09/26 09:35:15;;;;;;;3.57;3.37;;;;;;;16.64;85.22;95975.94;4375629;32;20220;-62
2023/09/26 09:37:42;;;;;;;3.07;2.87;;;;;;;16.60;85.63;95978.47;4375480;32;20276;-61
2023/09/26 09:40:10;;;;;;;4.33;4.07;;;;;;;16.60;85.50;95980.34;4378310;32;20181;-61
2023/09/26 09:42:36;;;;;;;14.73;5.27;;;;;;;16.68;85.44;95971.53;4377543;32;20194;-62
2023/09/26 09:45:04;;;;;;;5.03;4.60;;;;;;;16.70;85.82;95974.69;4363734;32;20177;-62
2023/09/26 09:47:30;;;;;;;5.07;4.77;;;;;;;16.71;85.70;95977.06;4362424;32;20295;-62
2023/09/26 09:50:00;;;;;;;5.57;5.10;;;;;;;16.74;85.53;95970.28;4376111;32;20189;-61
2023/09/26 09:52:31;;;;;;;10.97;6.40;;;;;;;16.84;84.69;95969.97;4377059;32;20222;-62
2023/09/26 09:54:57;;;;;;;3.90;3.60;;;;;;;16.76;85.05;95970.78;4376608;32;20239;-62
2023/09/26 09:57:26;;;;;;;7.97;7.33;;;;;;;16.80;85.28;95969.81;4377314;32;20181;-62
2023/09/26 09:59:52;;;;;;;9.43;5.60;;;;;;;16.78;85.36;95971.25;4377801;32;20180;-62
2023/09/26 10:02:19;;;;;;;7.20;5.73;;;;;;;16.91;85.22;95964.13;4376380;32;20206;-62
2023/09/26 10:04:47;;;;;;;7.30;5.73;;;;;;;16.91;85.34;95962.22;4376200;32;20281;-62
2023/09/26 10:07:14;;;;;;;4.57;4.27;;;;;;;17.02;84.77;95963.50;4376281;32;20189;-62
2023/09/26 10:09:42;;;;;;;4.50;4.20;;;;;;;16.95;84.84;95965.88;4377442;32;20264;-62
2023/09/26 10:12:09;;;;;;;5.30;4.90;;;;;;;17.06;85.20;95963.63;4377728;32;20172;-62
2023/09/26 10:14:35;;;;;;;6.10;5.57;;;;;;;17.05;85.36;95965.50;4376225;32;20177;-62
2023/09/26 10:17:02;;;;;;;7.10;6.60;;;;;;;17.11;84.75;95958.88;4377153;32;20220;-62
2023/09/26 10:19:28;;;;;;;6.87;6.20;;;;;;;17.26;84.33;95962.16;4368793;32;20181;-62
2023/09/26 10:22:12;;;;;;;4.63;4.33;;;;;;;17.38;84.11;95955.03;4373865;32;20231;-62
2023/09/26 10:24:51;;;;;;;3.87;3.67;;;;;;;17.41;83.83;95961.66;4364183;32;20180;-61
2023/09/26 10:27:38;;;;;;;3.77;3.47;;;;;;;17.36;83.51;95948.41;4377165;32;20300;-61
2023/09/26 10:30:10;;;;;;;3.93;3.73;;;;;;;17.45;83.34;95954.56;4376737;32;20191;-62
2023/09/26 10:36:02;;;;;;;4.83;4.43;;;;;;;17.53;81.98;95961.75;4376507;32;20223;-61
2023/09/26 10:38:27;;;;;;;5.40;4.80;;;;;;;17.46;82.75;95959.56;4376897;32;20222;-61
2023/09/26 10:40:53;;;;;;;4.13;3.83;;;;;;;17.45;82.77;95957.22;4376911;32;20228;-61
2023/09/26 10:43:19;;;;;;;4.27;4.07;;;;;;;17.49;82.38;95950.09;4362456;32;20207;-61
2023/09/26 10:45:45;;;;;;;4.60;4.30;;;;;;;17.50;82.91;95960.50;4376684;32;20243;-62
2023/09/26 10:48:17;;;;;;;4.93;4.53;;;;;;;17.47;82.75;95955.00;4376920;32;20253;-62
2023/09/26 10:50:42;;;;;;;5.53;5.03;;;;;;;17.65;82.57;95953.87;4376133;32;20227;-61
2023/09/26 10:53:08;;;;;;;6.17;5.57;;;;;;;17.73;82.01;95946.87;4384745;32;20181;-61
2023/09/26 10:55:34;;;;;;;5.27;5.07;;;;;;;17.69;81.92;95949.41;4372412;32;20177;-61
2023/09/26 10:58:00;;;;;;;6.13;5.63;;;;;;;17.70;82.17;95948.31;4375745;32;20207;-61
2023/09/26 11:00:25;;;;;;;4.47;4.17;;;;;;;17.63;82.32;95945.31;4376247;32;20181;-62
2023/09/26 11:02:50;;;;;;;3.90;3.70;;;;;;;17.69;82.42;95944.03;4360205;32;20203;-61
2023/09/26 11:05:16;;;;;;;4.33;4.03;;;;;;;17.81;81.94;95946.06;4375198;32;20191;-61
2023/09/26 11:07:44;;;;;;;2.23;2.13;;;;;;;17.89;81.78;95955.16;4374687;32;20241;-62
2023/09/26 11:10:14;;;;;;;4.00;3.70;;;;;;;17.98;81.26;95948.66;4362540;32;20252;-61
2023/09/26 11:12:40;;;;;;;3.73;3.53;;;;;;;17.98;81.06;95950.53;4376119;32;20180;-61
2023/09/26 11:15:07;;;;;;;2.77;2.67;;;;;;;17.87;81.43;95947.44;4378266;32;20185;-62
2023/09/26 11:17:33;;;;;;;4.60;4.30;;;;;;;17.86;81.83;95945.87;4362290;32;20189;-61
2023/09/26 11:19:59;;;;;;;4.07;3.87;;;;;;;17.89;81.35;95939.84;4376384;32;20267;-61
2023/09/26 11:22:25;;;;;;;3.93;3.73;;;;;;;17.92;81.09;95941.88;4376446;32;20200;-62
2023/09/26 11:25:11;;;;;;;4.00;3.73;;;;;;;17.89;80.87;95945.19;4368173;32;20196;-61
2023/09/26 11:27:44;;;;;;;3.23;3.07;;;;;;;17.83;81.00;95947.31;4362842;32;20222;-61
2023/09/26 11:30:20;;;;;;;5.17;4.67;;;;;;;17.84;81.18;95932.78;4372943;32;20192;-61
2023/09/26 11:32:53;;;;;;;4.17;3.97;;;;;;;17.90;80.84;95936.03;4365354;32;20231;-61
2023/09/26 11:35:20;;;;;;;4.23;3.83;;;;;;;17.85;81.20;95923.63;4376049;32;20238;-62